Time;durP1;ratioP1;P1;durP2;ratioP2;P2;SDS_P1;SDS_P2;PMS_P1;PMS_P2;Temp;Humidity;BMP_temperature;BMP_pressure;BME280_temperature;BME280_humidity;BME280_pressure;Samples;Min_cycle;Max_cycle;Signal;HPM_P1;HPM_P2
2023/09/24 00:00:32;;;;;;;7.90;4.63;;;;;;;;;;1044593;28;20044;-66
2023/09/24 00:01:23;;;;;;;6.65;4.55;;;;;;;;;;1045444;28;20064;-66
2023/09/24 00:01:53;;;;;;;14.32;4.40;;;;;;;;;;1043083;28;20061;-65
2023/09/24 00:02:25;;;;;;;6.32;5.38;;;;;;;;;;1045692;28;20049;-65
2023/09/24 00:02:55;;;;;;;6.32;4.60;;;;;;;;;;1045944;28;20127;-65
2023/09/24 00:03:26;;;;;;;8.75;4.60;;;;;;;;;;1043493;28;20081;-65
2023/09/24 00:03:56;;;;;;;6.50;4.40;;;;;;;;;;1044285;28;20049;-65
2023/09/24 00:04:27;;;;;;;5.30;4.38;;;;;;;;;;1046174;28;20053;-66
2023/09/24 00:04:58;;;;;;;8.98;4.63;;;;;;;;;;1046076;28;20510;-66
2023/09/24 00:05:28;;;;;;;6.40;4.00;;;;;;;;;;1044927;28;20052;-66
2023/09/24 00:06:05;;;;;;;8.85;4.43;;;;;;;;;;1044946;28;20428;-66
2023/09/24 00:06:36;;;;;;;7.32;4.18;;;;;;;;;;1045593;28;20056;-66
2023/09/24 00:07:07;;;;;;;6.60;4.38;;;;;;;;;;1040079;28;20048;-66
2023/09/24 00:07:37;;;;;;;8.20;4.75;;;;;;;;;;1042474;28;20045;-66
2023/09/24 00:08:08;;;;;;;6.20;4.32;;;;;;;;;;1042858;28;20056;-66
2023/09/24 00:08:39;;;;;;;7.20;5.00;;;;;;;;;;1042178;28;20064;-66
2023/09/24 00:09:11;;;;;;;5.28;4.55;;;;;;;;;;1040274;28;20063;-66
2023/09/24 00:09:42;;;;;;;6.10;4.93;;;;;;;;;;1040193;28;20048;-65
2023/09/24 00:10:12;;;;;;;6.18;4.85;;;;;;;;;;1042507;28;20045;-65
2023/09/24 00:10:50;;;;;;;6.45;4.88;;;;;;;;;;1045435;28;20456;-66
2023/09/24 00:11:21;;;;;;;6.80;4.65;;;;;;;;;;1045416;28;20072;-66
2023/09/24 00:11:51;;;;;;;6.43;4.75;;;;;;;;;;1046198;28;20090;-66
2023/09/24 00:12:22;;;;;;;10.30;5.18;;;;;;;;;;1043402;28;20048;-66
2023/09/24 00:12:53;;;;;;;7.78;4.30;;;;;;;;;;1047031;28;20412;-66
2023/09/24 00:13:25;;;;;;;6.50;4.50;;;;;;;;;;1045419;28;20705;-66
2023/09/24 00:13:55;;;;;;;6.35;4.80;;;;;;;;;;1043798;28;20071;-66
2023/09/24 00:14:26;;;;;;;4.90;4.47;;;;;;;;;;1042985;28;20160;-66
2023/09/24 00:14:56;;;;;;;7.57;5.32;;;;;;;;;;1044725;28;20567;-66
2023/09/24 00:15:27;;;;;;;7.35;5.05;;;;;;;;;;1043763;28;20068;-66
2023/09/24 00:16:04;;;;;;;6.95;5.50;;;;;;;;;;1045296;28;20048;-66
2023/09/24 00:16:35;;;;;;;5.63;4.57;;;;;;;;;;1039682;28;20068;-65
2023/09/24 00:17:08;;;;;;;6.75;4.20;;;;;;;;;;1041408;28;20064;-66
2023/09/24 00:17:38;;;;;;;7.65;4.35;;;;;;;;;;1045447;28;20473;-66
2023/09/24 00:18:09;;;;;;;6.05;4.90;;;;;;;;;;1044279;28;20484;-66
2023/09/24 00:18:39;;;;;;;6.57;5.13;;;;;;;;;;1040630;28;20065;-66
2023/09/24 00:19:10;;;;;;;5.43;4.55;;;;;;;;;;1040211;28;20140;-66
2023/09/24 00:19:40;;;;;;;5.32;4.50;;;;;;;;;;1042692;28;20057;-66
2023/09/24 00:20:11;;;;;;;9.95;4.18;;;;;;;;;;1041142;28;20049;-66
2023/09/24 00:20:42;;;;;;;9.80;4.13;;;;;;;;;;1044826;28;20053;-66
2023/09/24 00:21:12;;;;;;;4.70;4.07;;;;;;;;;;1044812;28;20130;-66
2023/09/24 00:21:43;;;;;;;5.10;4.57;;;;;;;;;;1045746;28;20048;-66
2023/09/24 00:22:14;;;;;;;6.05;4.13;;;;;;;;;;1044075;28;20056;-65
2023/09/24 00:22:46;;;;;;;6.88;4.30;;;;;;;;;;1045971;28;20076;-65
2023/09/24 00:23:16;;;;;;;5.80;4.57;;;;;;;;;;1045800;28;20392;-65
2023/09/24 00:23:47;;;;;;;13.73;4.30;;;;;;;;;;1046361;28;20408;-65
2023/09/24 00:24:18;;;;;;;6.75;4.47;;;;;;;;;;1045462;28;20633;-65
2023/09/24 00:24:49;;;;;;;5.82;4.50;;;;;;;;;;1045875;28;20045;-65
2023/09/24 00:25:21;;;;;;;6.43;4.10;;;;;;;;;;1044366;28;20053;-65
2023/09/24 00:25:52;;;;;;;8.60;4.40;;;;;;;;;;1043608;28;20057;-65
2023/09/24 00:26:24;;;;;;;6.00;4.50;;;;;;;;;;1046501;28;20071;-65
2023/09/24 00:26:55;;;;;;;4.22;3.83;;;;;;;;;;1046144;28;20048;-65
2023/09/24 00:27:25;;;;;;;4.95;4.43;;;;;;;;;;1044580;28;20048;-66
2023/09/24 00:27:56;;;;;;;5.10;3.90;;;;;;;;;;1045682;28;20048;-66
2023/09/24 00:28:27;;;;;;;7.20;4.63;;;;;;;;;;1045830;28;20059;-66
2023/09/24 00:28:57;;;;;;;6.40;4.40;;;;;;;;;;1046185;28;20041;-66
2023/09/24 00:29:28;;;;;;;7.68;4.82;;;;;;;;;;1045870;28;20056;-66
2023/09/24 00:29:59;;;;;;;7.07;4.13;;;;;;;;;;1045664;28;20079;-66
2023/09/24 00:30:31;;;;;;;6.90;4.53;;;;;;;;;;1044835;28;20048;-66
2023/09/24 00:31:02;;;;;;;12.40;5.88;;;;;;;;;;1042244;28;20049;-66
2023/09/24 00:31:32;;;;;;;7.32;4.95;;;;;;;;;;1045795;28;20479;-66
2023/09/24 00:32:03;;;;;;;7.53;4.20;;;;;;;;;;1045502;28;20400;-66
2023/09/24 00:32:35;;;;;;;8.32;4.80;;;;;;;;;;1044634;28;20049;-65
2023/09/24 00:33:06;;;;;;;5.03;4.38;;;;;;;;;;1046362;28;20045;-66
2023/09/24 00:33:36;;;;;;;6.00;5.05;;;;;;;;;;1044364;28;20049;-66
2023/09/24 00:34:08;;;;;;;7.20;4.13;;;;;;;;;;1045589;28;20075;-66
2023/09/24 00:34:38;;;;;;;5.10;4.55;;;;;;;;;;1046575;28;20174;-66
2023/09/24 00:35:10;;;;;;;7.22;4.57;;;;;;;;;;1045220;28;20041;-66
2023/09/24 00:35:41;;;;;;;4.38;3.80;;;;;;;;;;1045224;28;20049;-66
2023/09/24 00:36:12;;;;;;;5.72;4.30;;;;;;;;;;1044812;28;20052;-66
2023/09/24 00:36:42;;;;;;;7.03;4.22;;;;;;;;;;1044599;28;20036;-66
2023/09/24 00:37:13;;;;;;;6.10;4.43;;;;;;;;;;1046056;28;20820;-66
2023/09/24 00:37:43;;;;;;;4.78;4.15;;;;;;;;;;1045461;28;20131;-66
2023/09/24 00:38:14;;;;;;;4.95;4.20;;;;;;;;;;1045713;28;20048;-66
2023/09/24 00:38:45;;;;;;;5.03;4.40;;;;;;;;;;1045681;28;20098;-65
2023/09/24 00:39:16;;;;;;;7.07;4.55;;;;;;;;;;1044874;28;20051;-65
2023/09/24 00:39:47;;;;;;;5.55;4.25;;;;;;;;;;1044140;28;20049;-65
2023/09/24 00:40:18;;;;;;;9.77;5.03;;;;;;;;;;1045710;28;20044;-65
2023/09/24 00:40:49;;;;;;;10.25;4.63;;;;;;;;;;1045599;28;20064;-66
2023/09/24 00:41:19;;;;;;;10.40;4.90;;;;;;;;;;1044718;28;20059;-66
2023/09/24 00:41:50;;;;;;;8.15;4.38;;;;;;;;;;1044889;28;20045;-66
2023/09/24 00:42:22;;;;;;;5.00;4.50;;;;;;;;;;1045255;28;21508;-65
2023/09/24 00:42:53;;;;;;;6.57;4.60;;;;;;;;;;1045931;28;20036;-66
2023/09/24 00:43:32;;;;;;;7.68;5.15;;;;;;;;;;1044777;28;20051;-66
2023/09/24 00:44:03;;;;;;;4.20;3.80;;;;;;;;;;1042263;28;20087;-66
2023/09/24 00:44:34;;;;;;;7.30;4.68;;;;;;;;;;1045566;28;20066;-66
2023/09/24 00:45:09;;;;;;;6.70;4.43;;;;;;;;;;1043664;28;20052;-66
2023/09/24 00:45:42;;;;;;;6.13;4.72;;;;;;;;;;1046561;28;20155;-67
2023/09/24 00:46:14;;;;;;;8.48;5.05;;;;;;;;;;1045572;28;20053;-66
2023/09/24 00:46:46;;;;;;;6.97;5.07;;;;;;;;;;1043986;28;20495;-65
2023/09/24 00:47:17;;;;;;;6.07;4.80;;;;;;;;;;1045097;28;20044;-65
2023/09/24 00:47:48;;;;;;;7.65;4.40;;;;;;;;;;1046459;28;20048;-66
2023/09/24 00:48:19;;;;;;;6.32;5.68;;;;;;;;;;1044810;28;20045;-66
2023/09/24 00:48:52;;;;;;;6.18;5.07;;;;;;;;;;1045635;28;20139;-66
2023/09/24 00:49:22;;;;;;;10.15;4.57;;;;;;;;;;1044855;28;20078;-66
2023/09/24 00:49:54;;;;;;;4.68;4.10;;;;;;;;;;1046406;28;20044;-66
2023/09/24 00:50:32;;;;;;;5.60;4.53;;;;;;;;;;1044798;28;20155;-66
2023/09/24 00:51:19;;;;;;;8.43;4.45;;;;;;;;;;1045018;28;20102;-66
2023/09/24 00:51:50;;;;;;;4.43;4.03;;;;;;;;;;1046365;28;20067;-66
2023/09/24 00:52:24;;;;;;;4.50;4.10;;;;;;;;;;1044631;28;20412;-66
2023/09/24 00:52:55;;;;;;;5.00;4.53;;;;;;;;;;1046485;28;20052;-66
2023/09/24 00:53:31;;;;;;;6.32;4.72;;;;;;;;;;1045420;28;20088;-66
2023/09/24 00:54:02;;;;;;;7.43;4.28;;;;;;;;;;1045309;28;20048;-66
2023/09/24 00:54:33;;;;;;;7.85;3.90;;;;;;;;;;1045496;28;20072;-66
2023/09/24 00:55:05;;;;;;;8.48;4.68;;;;;;;;;;1046373;28;20049;-66
2023/09/24 00:55:36;;;;;;;6.07;4.32;;;;;;;;;;1042708;28;20519;-65
2023/09/24 00:56:08;;;;;;;6.82;4.28;;;;;;;;;;1046273;28;20576;-66
2023/09/24 00:56:40;;;;;;;7.93;4.60;;;;;;;;;;1045981;28;20064;-66
2023/09/24 00:57:11;;;;;;;6.45;4.40;;;;;;;;;;1045847;28;20860;-66
2023/09/24 00:57:43;;;;;;;5.22;3.97;;;;;;;;;;1044128;28;20551;-66
2023/09/24 00:58:13;;;;;;;5.57;4.55;;;;;;;;;;1046151;28;20583;-66
2023/09/24 00:58:46;;;;;;;6.65;4.25;;;;;;;;;;1045266;28;20505;-66
2023/09/24 00:59:17;;;;;;;11.02;5.10;;;;;;;;;;1045842;28;20449;-65
2023/09/24 00:59:48;;;;;;;5.90;4.57;;;;;;;;;;1046101;28;20507;-65
2023/09/24 01:00:19;;;;;;;7.32;4.82;;;;;;;;;;1043214;28;20045;-65
2023/09/24 01:00:52;;;;;;;7.72;4.22;;;;;;;;;;1046067;28;20040;-66
2023/09/24 01:01:24;;;;;;;6.32;4.38;;;;;;;;;;1044819;28;20850;-66
2023/09/24 01:01:55;;;;;;;5.20;4.35;;;;;;;;;;1046158;28;20469;-66
2023/09/24 01:02:28;;;;;;;7.20;4.95;;;;;;;;;;1044793;28;20448;-66
2023/09/24 01:02:59;;;;;;;8.45;5.05;;;;;;;;;;1046009;28;20174;-66
2023/09/24 01:03:30;;;;;;;6.20;4.65;;;;;;;;;;1045192;28;20151;-66
2023/09/24 01:04:04;;;;;;;4.80;4.38;;;;;;;;;;1045840;28;20480;-66
2023/09/24 01:04:35;;;;;;;6.57;4.68;;;;;;;;;;1045876;28;20052;-66
2023/09/24 01:05:10;;;;;;;4.95;4.45;;;;;;;;;;1043897;28;20091;-66
2023/09/24 01:05:41;;;;;;;5.65;4.63;;;;;;;;;;1044911;28;20048;-66
2023/09/24 01:06:11;;;;;;;5.00;4.28;;;;;;;;;;1043700;28;20079;-66
2023/09/24 01:06:41;;;;;;;5.65;4.40;;;;;;;;;;1043796;28;20060;-66
2023/09/24 01:07:12;;;;;;;4.82;4.32;;;;;;;;;;1045244;28;20051;-65
2023/09/24 01:07:43;;;;;;;5.85;4.18;;;;;;;;;;1045306;28;20044;-65
2023/09/24 01:08:14;;;;;;;4.57;3.90;;;;;;;;;;1045046;28;20409;-66
2023/09/24 01:08:45;;;;;;;6.72;5.13;;;;;;;;;;1043803;28;20512;-65
2023/09/24 01:09:21;;;;;;;4.78;4.32;;;;;;;;;;1044765;28;20513;-65
2023/09/24 01:09:53;;;;;;;8.07;4.32;;;;;;;;;;1045487;28;20079;-66
2023/09/24 01:10:24;;;;;;;6.43;4.38;;;;;;;;;;1043438;28;20148;-66
2023/09/24 01:10:57;;;;;;;4.90;4.32;;;;;;;;;;1045028;28;20055;-66
2023/09/24 01:11:31;;;;;;;5.15;4.25;;;;;;;;;;1044008;28;20118;-66
2023/09/24 01:12:03;;;;;;;7.18;4.35;;;;;;;;;;1044739;28;20036;-66
2023/09/24 01:12:34;;;;;;;8.30;4.35;;;;;;;;;;1046172;28;20059;-65
2023/09/24 01:13:04;;;;;;;5.20;3.95;;;;;;;;;;1043765;28;20083;-65
2023/09/24 01:13:45;;;;;;;5.65;3.90;;;;;;;;;;1045928;28;20618;-66
2023/09/24 01:14:17;;;;;;;7.32;4.28;;;;;;;;;;1045266;28;20110;-65
2023/09/24 01:14:48;;;;;;;4.60;4.20;;;;;;;;;;1045127;28;20045;-66
2023/09/24 01:15:18;;;;;;;5.38;4.65;;;;;;;;;;1043552;28;20061;-66
2023/09/24 01:15:52;;;;;;;6.70;4.85;;;;;;;;;;1046508;28;20051;-66
2023/09/24 01:16:23;;;;;;;7.40;4.47;;;;;;;;;;1044507;28;20066;-65
2023/09/24 01:16:53;;;;;;;5.53;4.88;;;;;;;;;;1043103;28;20048;-66
2023/09/24 01:17:25;;;;;;;4.82;4.20;;;;;;;;;;1044254;28;20079;-66
2023/09/24 01:17:55;;;;;;;5.57;4.28;;;;;;;;;;1045327;28;20067;-66
2023/09/24 01:18:26;;;;;;;5.28;4.32;;;;;;;;;;1045908;28;20048;-66
2023/09/24 01:18:56;;;;;;;7.30;4.60;;;;;;;;;;1044602;28;20049;-65
2023/09/24 01:19:27;;;;;;;8.07;5.55;;;;;;;;;;1044229;28;20515;-66
2023/09/24 01:19:58;;;;;;;7.20;4.60;;;;;;;;;;1045465;28;20516;-66
2023/09/24 01:20:31;;;;;;;5.43;4.57;;;;;;;;;;1046433;28;20060;-66
2023/09/24 01:21:02;;;;;;;6.75;4.72;;;;;;;;;;1045537;28;20055;-66
2023/09/24 01:21:33;;;;;;;8.35;4.50;;;;;;;;;;1045196;28;20052;-66
2023/09/24 01:22:05;;;;;;;5.40;4.47;;;;;;;;;;1044930;28;20052;-65
2023/09/24 01:22:36;;;;;;;15.25;4.78;;;;;;;;;;1041892;28;20049;-65
2023/09/24 01:23:13;;;;;;;7.75;4.80;;;;;;;;;;1041383;28;20781;-66
2023/09/24 01:23:45;;;;;;;7.30;4.55;;;;;;;;;;1040957;28;20045;-66
2023/09/24 01:24:16;;;;;;;8.43;4.75;;;;;;;;;;1042923;28;20547;-66
2023/09/24 01:24:47;;;;;;;5.20;4.30;;;;;;;;;;1046854;28;20071;-66
2023/09/24 01:25:18;;;;;;;6.07;4.18;;;;;;;;;;1043959;28;20397;-66
2023/09/24 01:25:49;;;;;;;7.63;4.80;;;;;;;;;;1044858;28;20071;-65
2023/09/24 01:26:22;;;;;;;8.65;5.13;;;;;;;;;;1045464;28;20408;-66
2023/09/24 01:26:53;;;;;;;4.95;4.43;;;;;;;;;;1045296;28;20044;-66
2023/09/24 01:27:24;;;;;;;5.22;4.70;;;;;;;;;;1044487;28;20048;-65
2023/09/24 01:27:55;;;;;;;7.53;5.35;;;;;;;;;;1044749;28;20044;-66
2023/09/24 01:28:26;;;;;;;6.88;4.90;;;;;;;;;;1041368;28;20073;-66
2023/09/24 01:28:58;;;;;;;6.50;4.88;;;;;;;;;;1042337;28;20049;-66
2023/09/24 01:29:29;;;;;;;6.22;4.88;;;;;;;;;;1040717;28;20481;-66
2023/09/24 01:29:59;;;;;;;10.23;5.18;;;;;;;;;;1042642;28;22593;-66
2023/09/24 01:30:30;;;;;;;7.53;5.25;;;;;;;;;;1039093;28;20049;-66
2023/09/24 01:31:02;;;;;;;6.30;4.93;;;;;;;;;;1041436;28;20044;-66
2023/09/24 01:31:32;;;;;;;6.13;4.57;;;;;;;;;;1041076;28;20669;-66
2023/09/24 01:32:06;;;;;;;5.55;4.85;;;;;;;;;;1041750;28;20458;-65
2023/09/24 01:32:37;;;;;;;7.40;5.00;;;;;;;;;;1041173;28;20048;-66
2023/09/24 01:33:07;;;;;;;6.45;4.97;;;;;;;;;;1040435;28;20052;-66
2023/09/24 01:33:39;;;;;;;5.15;4.45;;;;;;;;;;1044887;28;20040;-66
2023/09/24 01:34:10;;;;;;;11.60;4.88;;;;;;;;;;1044674;28;20096;-66
2023/09/24 01:34:40;;;;;;;5.75;5.07;;;;;;;;;;1044910;28;20098;-66
2023/09/24 01:35:11;;;;;;;6.18;4.90;;;;;;;;;;1043108;28;20045;-66
2023/09/24 01:35:42;;;;;;;8.05;5.25;;;;;;;;;;1044907;28;20476;-66
2023/09/24 01:36:13;;;;;;;6.40;5.28;;;;;;;;;;1045864;28;20396;-66
2023/09/24 01:36:43;;;;;;;6.32;5.32;;;;;;;;;;1045444;28;22246;-66
2023/09/24 01:37:14;;;;;;;6.80;5.55;;;;;;;;;;1045234;28;20390;-66
2023/09/24 01:37:44;;;;;;;6.35;4.68;;;;;;;;;;1045091;28;20053;-66
2023/09/24 01:38:16;;;;;;;6.97;5.40;;;;;;;;;;1042491;28;20052;-66
2023/09/24 01:38:47;;;;;;;7.32;5.10;;;;;;;;;;1045548;28;20060;-66
2023/09/24 01:39:22;;;;;;;6.32;4.97;;;;;;;;;;1045698;28;20106;-65
2023/09/24 01:39:52;;;;;;;5.57;4.82;;;;;;;;;;1043601;28;20049;-65
2023/09/24 01:40:24;;;;;;;6.95;4.93;;;;;;;;;;1044094;28;20044;-66
2023/09/24 01:40:54;;;;;;;7.53;5.55;;;;;;;;;;1046474;28;20051;-66
2023/09/24 01:41:25;;;;;;;6.35;4.80;;;;;;;;;;1045548;28;20063;-66
2023/09/24 01:41:56;;;;;;;7.35;5.05;;;;;;;;;;1044896;28;20052;-66
2023/09/24 01:42:27;;;;;;;6.85;5.07;;;;;;;;;;1046060;28;20055;-65
2023/09/24 01:43:00;;;;;;;6.43;4.95;;;;;;;;;;1044280;28;20051;-65
2023/09/24 01:43:31;;;;;;;6.50;5.40;;;;;;;;;;1044005;28;20551;-66
2023/09/24 01:44:02;;;;;;;6.20;5.10;;;;;;;;;;1045180;28;20253;-66
2023/09/24 01:44:32;;;;;;;10.15;5.32;;;;;;;;;;1046092;28;20049;-66
2023/09/24 01:45:05;;;;;;;8.82;5.68;;;;;;;;;;1042990;28;20067;-66
2023/09/24 01:45:40;;;;;;;5.93;4.70;;;;;;;;;;1045603;28;20043;-65
2023/09/24 01:46:13;;;;;;;11.90;5.57;;;;;;;;;;1044147;28;20070;-66
2023/09/24 01:46:46;;;;;;;6.60;4.72;;;;;;;;;;1045320;28;20052;-66
2023/09/24 01:47:16;;;;;;;5.10;4.50;;;;;;;;;;1044993;28;20720;-66
2023/09/24 01:47:49;;;;;;;5.97;4.75;;;;;;;;;;1045598;28;20546;-65
2023/09/24 01:48:20;;;;;;;6.60;4.93;;;;;;;;;;1044068;28;20117;-65
2023/09/24 01:48:53;;;;;;;9.45;5.20;;;;;;;;;;1046646;28;20048;-66
2023/09/24 01:49:24;;;;;;;7.30;4.50;;;;;;;;;;1045667;28;20040;-66
2023/09/24 01:49:56;;;;;;;5.53;4.82;;;;;;;;;;1046483;28;20054;-65
2023/09/24 01:50:27;;;;;;;5.68;4.75;;;;;;;;;;1043280;28;20049;-66
2023/09/24 01:50:57;;;;;;;6.25;4.88;;;;;;;;;;1045517;28;20060;-66
2023/09/24 01:51:28;;;;;;;6.70;5.25;;;;;;;;;;1045382;28;20044;-66
2023/09/24 01:51:59;;;;;;;5.05;4.50;;;;;;;;;;1043638;28;20052;-66
2023/09/24 01:52:29;;;;;;;5.65;4.80;;;;;;;;;;1044355;28;20059;-66
2023/09/24 01:53:00;;;;;;;9.32;5.13;;;;;;;;;;1045337;28;20424;-66
2023/09/24 01:53:32;;;;;;;7.43;5.10;;;;;;;;;;1044932;28;20377;-66
2023/09/24 01:54:04;;;;;;;6.60;5.22;;;;;;;;;;1042524;28;20066;-66
2023/09/24 01:54:35;;;;;;;6.20;5.22;;;;;;;;;;1046436;28;20123;-66
2023/09/24 01:55:06;;;;;;;5.47;4.82;;;;;;;;;;1044890;28;20044;-66
2023/09/24 01:55:36;;;;;;;7.80;5.30;;;;;;;;;;1045901;28;20093;-66
2023/09/24 01:56:08;;;;;;;7.75;5.20;;;;;;;;;;1044158;28;20527;-65
2023/09/24 01:56:38;;;;;;;8.38;5.30;;;;;;;;;;1045027;28;20044;-66
2023/09/24 01:57:09;;;;;;;6.68;5.15;;;;;;;;;;1043304;28;20090;-66
2023/09/24 01:57:44;;;;;;;5.65;5.07;;;;;;;;;;1044373;28;20044;-65
2023/09/24 01:58:15;;;;;;;8.93;5.60;;;;;;;;;;1043927;28;20392;-66
2023/09/24 01:58:46;;;;;;;7.18;4.97;;;;;;;;;;1045627;28;20767;-66
2023/09/24 01:59:16;;;;;;;6.22;4.95;;;;;;;;;;1043510;28;20127;-66
2023/09/24 01:59:47;;;;;;;6.35;4.90;;;;;;;;;;1045814;28;20098;-65
2023/09/24 02:00:23;;;;;;;6.47;5.22;;;;;;;;;;1042488;28;20068;-65
2023/09/24 02:00:54;;;;;;;6.93;5.13;;;;;;;;;;1044600;28;20106;-66
2023/09/24 02:01:24;;;;;;;10.27;5.35;;;;;;;;;;1043835;28;20044;-66
2023/09/24 02:01:55;;;;;;;7.70;5.90;;;;;;;;;;1044607;28;20044;-66
2023/09/24 02:02:26;;;;;;;8.95;5.55;;;;;;;;;;1045172;28;20504;-66
2023/09/24 02:02:59;;;;;;;7.63;5.78;;;;;;;;;;1045631;28;20048;-66
2023/09/24 02:03:30;;;;;;;8.98;5.38;;;;;;;;;;1044564;28;20044;-66
2023/09/24 02:04:03;;;;;;;13.00;5.85;;;;;;;;;;1044954;28;20827;-66
2023/09/24 02:04:34;;;;;;;6.03;5.40;;;;;;;;;;1045548;28;20060;-66
2023/09/24 02:05:10;;;;;;;5.85;4.82;;;;;;;;;;1045983;28;20050;-66
2023/09/24 02:05:42;;;;;;;6.47;4.95;;;;;;;;;;1045116;28;20041;-66
2023/09/24 02:06:15;;;;;;;6.70;5.35;;;;;;;;;;1045165;28;20056;-66
2023/09/24 02:06:47;;;;;;;6.55;5.15;;;;;;;;;;1045808;28;20413;-66
2023/09/24 02:07:17;;;;;;;7.13;5.22;;;;;;;;;;1046221;28;20127;-66
2023/09/24 02:07:49;;;;;;;8.90;6.22;;;;;;;;;;1045021;28;20369;-66
2023/09/24 02:08:20;;;;;;;6.45;5.15;;;;;;;;;;1044626;28;20548;-66
2023/09/24 02:08:50;;;;;;;8.18;5.60;;;;;;;;;;1045933;28;20044;-66
2023/09/24 02:09:20;;;;;;;6.15;4.95;;;;;;;;;;1045334;28;20056;-66
2023/09/24 02:09:51;;;;;;;6.47;5.00;;;;;;;;;;1045300;28;20091;-66
2023/09/24 02:10:22;;;;;;;5.95;5.35;;;;;;;;;;1044319;28;20503;-66
2023/09/24 02:10:52;;;;;;;7.38;5.65;;;;;;;;;;1045353;28;20063;-66
2023/09/24 02:11:23;;;;;;;6.80;5.20;;;;;;;;;;1044642;28;20056;-66
2023/09/24 02:11:57;;;;;;;6.65;5.50;;;;;;;;;;1045937;28;20048;-66
2023/09/24 02:12:28;;;;;;;9.63;6.30;;;;;;;;;;1043558;28;20059;-66
2023/09/24 02:12:58;;;;;;;6.70;5.28;;;;;;;;;;1046409;28;20067;-66
2023/09/24 02:13:29;;;;;;;9.50;5.15;;;;;;;;;;1044582;28;20049;-66
2023/09/24 02:14:00;;;;;;;6.63;5.38;;;;;;;;;;1046794;28;20052;-66
2023/09/24 02:14:31;;;;;;;6.80;5.72;;;;;;;;;;1043790;28;20560;-66
2023/09/24 02:15:18;;;;;;;7.65;5.43;;;;;;;;;;1044433;28;20049;-66
2023/09/24 02:15:48;;;;;;;8.50;6.05;;;;;;;;;;1045495;28;20072;-65
2023/09/24 02:16:19;;;;;;;6.82;5.50;;;;;;;;;;1046127;28;20049;-66
2023/09/24 02:16:50;;;;;;;6.03;5.35;;;;;;;;;;1042980;28;20052;-66
2023/09/24 02:17:21;;;;;;;8.13;5.70;;;;;;;;;;1043579;28;20697;-66
2023/09/24 02:17:52;;;;;;;7.55;5.70;;;;;;;;;;1044663;28;20790;-66
2023/09/24 02:18:22;;;;;;;6.38;5.53;;;;;;;;;;1045258;28;20492;-66
2023/09/24 02:18:53;;;;;;;7.07;6.22;;;;;;;;;;1045897;28;20049;-66
2023/09/24 02:19:25;;;;;;;8.82;5.50;;;;;;;;;;1043108;28;20049;-66
2023/09/24 02:19:55;;;;;;;11.35;5.40;;;;;;;;;;1044924;28;20044;-66
2023/09/24 02:20:31;;;;;;;8.35;6.05;;;;;;;;;;1044934;28;20048;-65
2023/09/24 02:21:06;;;;;;;6.35;5.75;;;;;;;;;;1043921;28;20148;-66
2023/09/24 02:21:40;;;;;;;8.77;6.10;;;;;;;;;;1044590;28;20586;-66
2023/09/24 02:22:11;;;;;;;8.10;5.38;;;;;;;;;;1044606;28;20453;-66
2023/09/24 02:22:42;;;;;;;8.38;6.03;;;;;;;;;;1046143;28;20059;-66
2023/09/24 02:23:12;;;;;;;9.93;5.82;;;;;;;;;;1045231;28;20117;-66
2023/09/24 02:23:44;;;;;;;11.45;5.57;;;;;;;;;;1044666;28;20053;-65
2023/09/24 02:24:14;;;;;;;5.97;5.22;;;;;;;;;;1044002;28;20150;-66
2023/09/24 02:24:45;;;;;;;10.02;5.45;;;;;;;;;;1046030;28;20073;-66
2023/09/24 02:25:17;;;;;;;7.93;5.38;;;;;;;;;;1046136;28;20044;-66
2023/09/24 02:25:48;;;;;;;5.95;5.45;;;;;;;;;;1044556;28;20055;-66
2023/09/24 02:26:18;;;;;;;9.95;6.32;;;;;;;;;;1044224;28;20089;-65
2023/09/24 02:26:49;;;;;;;11.73;5.82;;;;;;;;;;1042582;28;20033;-66
2023/09/24 02:27:19;;;;;;;6.55;5.38;;;;;;;;;;1046138;28;20123;-65
2023/09/24 02:27:50;;;;;;;7.13;5.40;;;;;;;;;;1045202;28;20040;-66
2023/09/24 02:28:21;;;;;;;7.03;5.95;;;;;;;;;;1045368;28;20056;-66
2023/09/24 02:28:52;;;;;;;7.68;5.38;;;;;;;;;;1044937;28;20048;-66
2023/09/24 02:29:23;;;;;;;7.70;5.53;;;;;;;;;;1044323;28;20143;-66
2023/09/24 02:29:53;;;;;;;8.18;5.32;;;;;;;;;;1044462;28;20048;-66
2023/09/24 02:30:27;;;;;;;6.55;5.50;;;;;;;;;;1040976;28;20147;-66
2023/09/24 02:30:57;;;;;;;8.50;6.00;;;;;;;;;;1041122;28;20045;-66
2023/09/24 02:31:30;;;;;;;5.90;5.30;;;;;;;;;;1039693;28;20045;-66
2023/09/24 02:32:01;;;;;;;9.25;6.00;;;;;;;;;;1040030;28;20655;-66
2023/09/24 02:32:32;;;;;;;6.63;5.45;;;;;;;;;;1041074;28;20493;-65
2023/09/24 02:33:03;;;;;;;8.98;6.25;;;;;;;;;;1041473;28;20136;-65
2023/09/24 02:33:36;;;;;;;6.88;5.35;;;;;;;;;;1044006;28;20473;-66
2023/09/24 02:34:06;;;;;;;6.05;4.93;;;;;;;;;;1042598;28;20044;-68
2023/09/24 02:34:37;;;;;;;6.18;5.13;;;;;;;;;;1042110;28;20049;-65
2023/09/24 02:35:11;;;;;;;7.47;5.25;;;;;;;;;;1040645;28;20053;-66
2023/09/24 02:35:42;;;;;;;7.15;5.40;;;;;;;;;;1045924;28;20051;-66
2023/09/24 02:36:12;;;;;;;6.90;5.20;;;;;;;;;;1040800;28;20059;-66
2023/09/24 02:36:43;;;;;;;6.82;5.75;;;;;;;;;;1040895;28;20041;-66
2023/09/24 02:37:14;;;;;;;7.15;5.90;;;;;;;;;;1042635;28;20130;-66
2023/09/24 02:37:52;;;;;;;8.13;5.70;;;;;;;;;;1045823;28;20059;-66
2023/09/24 02:38:25;;;;;;;8.50;5.63;;;;;;;;;;1041701;28;20055;-65
2023/09/24 02:38:56;;;;;;;8.77;5.88;;;;;;;;;;1041724;28;20047;-64
2023/09/24 02:39:26;;;;;;;10.30;6.15;;;;;;;;;;1041049;28;20049;-66
2023/09/24 02:39:57;;;;;;;8.55;5.90;;;;;;;;;;1042555;28;20056;-66
2023/09/24 02:40:28;;;;;;;8.15;5.88;;;;;;;;;;1039723;28;20045;-66
2023/09/24 02:40:58;;;;;;;6.30;5.18;;;;;;;;;;1041197;28;20045;-66
2023/09/24 02:41:29;;;;;;;7.55;5.43;;;;;;;;;;1044973;28;20064;-66
2023/09/24 02:42:00;;;;;;;6.47;5.00;;;;;;;;;;1045638;28;20465;-66
2023/09/24 02:42:30;;;;;;;7.22;6.00;;;;;;;;;;1039383;28;20056;-66
2023/09/24 02:43:03;;;;;;;8.23;6.20;;;;;;;;;;1041134;28;20053;-66
2023/09/24 02:43:34;;;;;;;7.60;6.32;;;;;;;;;;1045284;28;20088;-66
2023/09/24 02:44:05;;;;;;;9.32;6.32;;;;;;;;;;1044837;28;20055;-66
2023/09/24 02:44:36;;;;;;;9.35;6.38;;;;;;;;;;1043709;28;20048;-66
2023/09/24 02:45:08;;;;;;;6.63;5.93;;;;;;;;;;1044176;28;20109;-66
2023/09/24 02:45:38;;;;;;;6.88;6.18;;;;;;;;;;1045544;28;20054;-65
2023/09/24 02:46:09;;;;;;;9.63;5.93;;;;;;;;;;1044624;28;20055;-65
2023/09/24 02:46:41;;;;;;;8.18;6.13;;;;;;;;;;1044227;28;20539;-65
2023/09/24 02:47:11;;;;;;;7.75;6.60;;;;;;;;;;1044392;28;20048;-66
2023/09/24 02:47:43;;;;;;;7.25;5.82;;;;;;;;;;1045557;28;20072;-66
2023/09/24 02:48:14;;;;;;;7.50;5.53;;;;;;;;;;1044496;28;20440;-66
2023/09/24 02:48:44;;;;;;;8.05;5.88;;;;;;;;;;1044181;28;20428;-66
2023/09/24 02:49:15;;;;;;;7.85;5.80;;;;;;;;;;1044598;28;20413;-66
2023/09/24 02:49:45;;;;;;;7.15;6.07;;;;;;;;;;1045925;28;20048;-65
2023/09/24 02:50:18;;;;;;;11.00;5.88;;;;;;;;;;1044764;28;20701;-66
2023/09/24 02:50:49;;;;;;;5.70;5.10;;;;;;;;;;1044583;28;20044;-66
2023/09/24 02:51:20;;;;;;;6.35;5.28;;;;;;;;;;1044677;28;20044;-66
2023/09/24 02:51:51;;;;;;;7.47;5.40;;;;;;;;;;1045471;28;20052;-65
2023/09/24 02:52:22;;;;;;;6.35;5.45;;;;;;;;;;1045438;28;20052;-66
2023/09/24 02:53:00;;;;;;;7.47;5.78;;;;;;;;;;1044787;28;20049;-66
2023/09/24 02:53:31;;;;;;;7.05;5.70;;;;;;;;;;1043614;28;20222;-66
2023/09/24 02:54:02;;;;;;;7.38;5.10;;;;;;;;;;1043406;28;20769;-66
2023/09/24 02:54:32;;;;;;;8.00;5.45;;;;;;;;;;1045206;28;20056;-66
2023/09/24 02:55:04;;;;;;;5.75;5.15;;;;;;;;;;1044794;28;20044;-66
2023/09/24 02:55:36;;;;;;;9.40;5.15;;;;;;;;;;1046227;28;20476;-66
2023/09/24 02:56:07;;;;;;;7.95;5.63;;;;;;;;;;1044734;28;20063;-66
2023/09/24 02:56:38;;;;;;;7.47;5.82;;;;;;;;;;1045045;28;20056;-66
2023/09/24 02:57:08;;;;;;;5.82;5.25;;;;;;;;;;1044744;28;20053;-66
2023/09/24 02:57:40;;;;;;;8.93;5.07;;;;;;;;;;1045516;28;20055;-65
2023/09/24 02:58:11;;;;;;;6.60;5.60;;;;;;;;;;1044687;28;20094;-66
2023/09/24 02:58:41;;;;;;;6.13;5.53;;;;;;;;;;1045096;28;20090;-66
2023/09/24 02:59:12;;;;;;;7.57;5.43;;;;;;;;;;1045489;28;20515;-66
2023/09/24 02:59:43;;;;;;;8.20;5.68;;;;;;;;;;1046145;28;20643;-66
2023/09/24 03:00:17;;;;;;;11.38;5.63;;;;;;;;;;1044909;28;20037;-65
2023/09/24 03:00:50;;;;;;;7.47;5.90;;;;;;;;;;1045627;28;20076;-66
2023/09/24 03:01:21;;;;;;;7.20;5.53;;;;;;;;;;1044828;28;20506;-66
2023/09/24 03:01:52;;;;;;;9.77;5.40;;;;;;;;;;1045114;28;20511;-66
2023/09/24 03:02:23;;;;;;;6.53;5.60;;;;;;;;;;1043883;28;20044;-65
2023/09/24 03:02:58;;;;;;;8.63;5.95;;;;;;;;;;1045194;28;20052;-66
2023/09/24 03:03:29;;;;;;;7.07;5.45;;;;;;;;;;1044105;28;20064;-66
2023/09/24 03:03:59;;;;;;;8.57;6.18;;;;;;;;;;1044165;28;20156;-66
2023/09/24 03:04:30;;;;;;;9.35;5.93;;;;;;;;;;1044237;28;20053;-66
2023/09/24 03:05:00;;;;;;;6.68;5.75;;;;;;;;;;1042967;28;20086;-65
2023/09/24 03:05:31;;;;;;;6.85;5.95;;;;;;;;;;1041826;28;20684;-65
2023/09/24 03:06:02;;;;;;;10.88;5.80;;;;;;;;;;1044285;28;20045;-66
2023/09/24 03:06:33;;;;;;;9.07;5.90;;;;;;;;;;1046334;28;20389;-65
2023/09/24 03:07:03;;;;;;;7.55;5.68;;;;;;;;;;1043931;28;20048;-66
2023/09/24 03:07:36;;;;;;;7.30;5.47;;;;;;;;;;1044354;28;20385;-65
2023/09/24 03:08:09;;;;;;;5.57;4.95;;;;;;;;;;1044682;28;20413;-65
2023/09/24 03:08:40;;;;;;;7.78;5.28;;;;;;;;;;1043889;28;20048;-66
2023/09/24 03:09:11;;;;;;;7.25;5.10;;;;;;;;;;1043739;28;20045;-65
2023/09/24 03:09:41;;;;;;;6.43;5.30;;;;;;;;;;1045375;28;20480;-65